Time;durP1;ratioP1;P1;durP2;ratioP2;P2;SDS_P1;SDS_P2;PMS_P1;PMS_P2;Temp;Humidity;BMP_temperature;BMP_pressure;BME280_temperature;BME280_humidity;BME280_pressure;Samples;Min_cycle;Max_cycle;Signal;HPM_P1;HPM_P2
2022/08/10 00:02:56;;;;;;;;;;;;;;;26.35;44.12;98675.03;4984430;28;19929;-86
2022/08/10 00:05:23;;;;;;;;;;;;;;;26.38;44.03;98679.81;4994093;28;20017;-86
2022/08/10 00:07:50;;;;;;;;;;;;;;;26.28;44.22;98672.88;4993799;28;19929;-87
2022/08/10 00:10:17;;;;;;;;;;;;;;;26.27;44.16;98678.72;4992484;28;19925;-86
2022/08/10 00:12:44;;;;;;;;;;;;;;;26.16;44.43;98669.38;4984443;28;20444;-85
2022/08/10 00:15:11;;;;;;;;;;;;;;;26.22;44.38;98673.47;4979123;28;19929;-86
2022/08/10 00:17:38;;;;;;;;;;;;;;;26.17;44.36;98673.72;4994849;28;20016;-86
2022/08/10 00:20:06;;;;;;;;;;;;;;;26.09;44.40;98666.44;4996423;28;20041;-87
2022/08/10 00:22:33;;;;;;;;;;;;;;;26.07;44.48;98669.50;4999633;28;20392;-86
2022/08/10 00:24:59;;;;;;;;;;;;;;;26.02;44.63;98677.16;4996861;28;19976;-88
2022/08/10 00:27:25;;;;;;;;;;;;;;;26.03;44.40;98668.59;4996151;28;20490;-86
2022/08/10 00:29:52;;;;;;;;;;;;;;;26.05;44.53;98671.78;4998934;28;19936;-85
2022/08/10 00:32:19;;;;;;;;;;;;;;;25.99;44.55;98666.91;4997224;28;19936;-86
2022/08/10 00:34:45;;;;;;;;;;;;;;;26.05;44.36;98665.53;4993780;28;20380;-86
2022/08/10 00:37:13;;;;;;;;;;;;;;;26.04;44.47;98663.91;4992458;28;20012;-89
2022/08/10 00:39:40;;;;;;;;;;;;;;;26.02;44.45;98658.00;4996160;28;20620;-87
2022/08/10 00:42:07;;;;;;;;;;;;;;;26.00;44.42;98663.00;4986498;28;20021;-88
2022/08/10 00:44:33;;;;;;;;;;;;;;;26.04;44.24;98659.25;4992071;28;19940;-89
2022/08/10 00:47:00;;;;;;;;;;;;;;;25.96;44.42;98649.22;4995764;28;20025;-87
2022/08/10 00:49:27;;;;;;;;;;;;;;;25.97;44.39;98659.03;4995880;28;19985;-85
2022/08/10 00:51:53;;;;;;;;;;;;;;;25.94;44.42;98659.72;4998546;28;20412;-86
2022/08/10 00:54:21;;;;;;;;;;;;;;;25.92;44.33;98659.28;4998643;28;19929;-85
2022/08/10 00:56:47;;;;;;;;;;;;;;;25.85;44.56;98655.50;4995611;28;20561;-87
2022/08/10 00:59:14;;;;;;;;;;;;;;;25.82;44.59;98656.19;4998144;28;19925;-87
2022/08/10 01:01:40;;;;;;;;;;;;;;;25.84;44.66;98641.06;4990424;28;19925;-88
2022/08/10 01:04:07;;;;;;;;;;;;;;;25.83;44.52;98636.72;4994733;28;20002;-87
2022/08/10 01:06:38;;;;;;;;;;;;;;;25.79;44.65;98646.75;5014171;28;19940;-87
2022/08/10 01:09:10;;;;;;;;;;;;;;;25.81;44.62;98649.94;5007548;28;19940;-87
2022/08/10 01:11:39;;;;;;;;;;;;;;;25.78;44.83;98645.13;4995373;28;20024;-85
2022/08/10 01:14:09;;;;;;;;;;;;;;;25.78;44.73;98648.69;4997320;28;20012;-85
2022/08/10 01:16:37;;;;;;;;;;;;;;;25.74;44.66;98649.72;4998255;28;19926;-86
2022/08/10 01:19:13;;;;;;;;;;;;;;;25.76;44.62;98650.97;4995049;28;19930;-85
2022/08/10 01:21:53;;;;;;;;;;;;;;;25.75;44.78;98660.31;4995466;28;20012;-86
2022/08/10 01:24:30;;;;;;;;;;;;;;;25.70;44.76;98651.56;4994468;28;20009;-86
2022/08/10 01:27:04;;;;;;;;;;;;;;;25.71;44.82;98643.00;4994791;28;20408;-86
2022/08/10 01:29:42;;;;;;;;;;;;;;;25.68;44.85;98651.09;4990462;28;19926;-87
2022/08/10 01:32:11;;;;;;;;;;;;;;;25.68;44.79;98651.91;4992946;28;19930;-84
2022/08/10 01:34:42;;;;;;;;;;;;;;;25.66;44.95;98645.97;4994023;28;20346;-85
2022/08/10 01:37:13;;;;;;;;;;;;;;;25.61;44.96;98654.41;4997227;28;19960;-85
2022/08/10 01:39:41;;;;;;;;;;;;;;;25.51;45.20;98652.13;4999626;28;19925;-84
2022/08/10 01:42:11;;;;;;;;;;;;;;;25.56;45.08;98654.63;4997010;28;19925;-85
2022/08/10 01:44:40;;;;;;;;;;;;;;;25.59;45.11;98647.69;4991087;28;19925;-84
2022/08/10 01:49:56;;;;;;;;;;;;;;;25.47;45.33;98662.13;4993952;28;19925;-85
2022/08/10 01:52:23;;;;;;;;;;;;;;;25.49;45.34;98654.41;4995077;28;20036;-85
2022/08/10 01:54:51;;;;;;;;;;;;;;;25.51;45.33;98662.28;4983416;28;19933;-86
2022/08/10 01:57:19;;;;;;;;;;;;;;;25.45;45.42;98656.22;4996911;28;20016;-86
2022/08/10 01:59:47;;;;;;;;;;;;;;;25.47;45.45;98655.88;4999519;28;19929;-86
2022/08/10 02:02:14;;;;;;;;;;;;;;;25.41;45.58;98658.03;4994023;28;19932;-85
2022/08/10 02:04:42;;;;;;;;;;;;;;;25.40;45.73;98661.91;4998225;28;19932;-85
2022/08/10 02:07:12;;;;;;;;;;;;;;;25.30;45.90;98662.38;5006213;28;19935;-86
2022/08/10 02:09:41;;;;;;;;;;;;;;;25.30;45.80;98667.84;4996912;28;20028;-86
2022/08/10 02:12:09;;;;;;;;;;;;;;;25.30;46.01;98667.03;4980716;28;19926;-86
2022/08/10 02:14:50;;;;;;;;;;;;;;;25.27;45.85;98663.03;4989002;28;19930;-85
2022/08/10 02:17:19;;;;;;;;;;;;;;;25.30;45.91;98661.56;4979485;28;20013;-85
2022/08/10 02:19:46;;;;;;;;;;;;;;;25.31;46.02;98665.91;4991479;28;20023;-84
2022/08/10 02:22:14;;;;;;;;;;;;;;;25.30;45.90;98658.81;4986473;28;19932;-86
2022/08/10 02:24:41;;;;;;;;;;;;;;;25.26;45.81;98655.97;4992905;28;19926;-84
2022/08/10 02:27:08;;;;;;;;;;;;;;;25.18;45.96;98659.63;4983101;28;19925;-84
2022/08/10 02:29:36;;;;;;;;;;;;;;;25.20;46.06;98660.88;4995348;28;19929;-85
2022/08/10 02:32:03;;;;;;;;;;;;;;;25.19;46.17;98653.78;4987405;28;19930;-85
2022/08/10 02:34:31;;;;;;;;;;;;;;;25.17;46.22;98664.28;4981892;28;20005;-86
2022/08/10 02:36:58;;;;;;;;;;;;;;;25.23;46.03;98657.47;4989768;28;20028;-84
2022/08/10 02:39:25;;;;;;;;;;;;;;;25.25;46.11;98659.88;4994585;28;19932;-84
2022/08/10 02:41:55;;;;;;;;;;;;;;;25.12;46.14;98656.31;4994388;28;20427;-85
2022/08/10 02:44:24;;;;;;;;;;;;;;;24.85;46.53;98653.44;4987075;28;19925;-85
2022/08/10 02:46:54;;;;;;;;;;;;;;;24.94;46.48;98654.94;4987513;28;19965;-87
2022/08/10 02:49:22;;;;;;;;;;;;;;;25.01;46.31;98663.34;4991724;28;20046;-85
2022/08/10 02:51:54;;;;;;;;;;;;;;;24.97;46.41;98658.91;4988907;28;20024;-86
2022/08/10 02:54:21;;;;;;;;;;;;;;;24.99;46.27;98657.44;5004472;28;20498;-86
2022/08/10 02:56:53;;;;;;;;;;;;;;;24.89;46.71;98660.59;4991622;28;19925;-85
2022/08/10 02:59:24;;;;;;;;;;;;;;;24.57;47.24;98658.66;4997825;28;21075;-86
2022/08/10 03:01:54;;;;;;;;;;;;;;;24.68;47.02;98662.56;4989510;28;19973;-85
2022/08/10 03:04:21;;;;;;;;;;;;;;;24.71;47.04;98667.34;4993223;28;20582;-84
2022/08/10 03:06:50;;;;;;;;;;;;;;;24.52;47.42;98661.59;4998319;28;19965;-84
2022/08/10 03:09:18;;;;;;;;;;;;;;;24.60;47.28;98655.25;5001990;28;20585;-86
2022/08/10 03:11:46;;;;;;;;;;;;;;;24.42;47.70;98665.53;4999331;28;19931;-85
2022/08/10 03:14:13;;;;;;;;;;;;;;;24.58;47.39;98665.69;4999453;28;19932;-84
2022/08/10 03:16:41;;;;;;;;;;;;;;;24.66;47.26;98668.34;5002337;28;19935;-85
2022/08/10 03:19:07;;;;;;;;;;;;;;;24.64;47.41;98659.69;4995343;28;20006;-85
2022/08/10 03:21:34;;;;;;;;;;;;;;;24.76;46.96;98666.34;5002390;28;19993;-85
2022/08/10 03:24:02;;;;;;;;;;;;;;;24.73;47.20;98660.41;5003307;28;20012;-84
2022/08/10 03:26:31;;;;;;;;;;;;;;;24.71;47.08;98659.97;4998616;28;19936;-85
2022/08/10 03:28:59;;;;;;;;;;;;;;;24.66;47.22;98660.16;5005346;28;19935;-85
2022/08/10 03:31:26;;;;;;;;;;;;;;;24.69;47.03;98659.50;5001197;28;20036;-85
2022/08/10 03:33:53;;;;;;;;;;;;;;;24.60;47.39;98658.75;5002426;28;19940;-85
2022/08/10 03:36:19;;;;;;;;;;;;;;;24.63;47.44;98652.63;5015011;28;19925;-84
2022/08/10 03:38:50;;;;;;;;;;;;;;;24.61;47.38;98663.09;4994463;28;20013;-85
2022/08/10 03:41:18;;;;;;;;;;;;;;;24.55;47.63;98661.72;4994314;28;19934;-84
2022/08/10 03:43:47;;;;;;;;;;;;;;;24.54;47.66;98657.38;4990072;28;19952;-85
2022/08/10 03:46:15;;;;;;;;;;;;;;;24.55;47.60;98663.66;4992283;28;19933;-87
2022/08/10 03:48:42;;;;;;;;;;;;;;;24.42;47.87;98662.81;4994072;28;20024;-85
2022/08/10 03:51:09;;;;;;;;;;;;;;;24.44;47.75;98668.75;5000987;28;19987;-85
2022/08/10 03:53:35;;;;;;;;;;;;;;;24.53;47.80;98665.94;4992134;28;20529;-85
2022/08/10 03:56:02;;;;;;;;;;;;;;;24.55;47.64;98669.09;4995927;28;19998;-84
2022/08/10 03:58:29;;;;;;;;;;;;;;;24.57;47.79;98666.84;4981293;28;20858;-84
2022/08/10 04:00:57;;;;;;;;;;;;;;;24.49;47.78;98679.44;4989545;28;20522;-84
2022/08/10 04:03:24;;;;;;;;;;;;;;;24.48;48.04;98679.78;4992237;28;19976;-87
2022/08/10 04:05:50;;;;;;;;;;;;;;;24.40;48.16;98683.38;4994816;28;20551;-85
2022/08/10 04:08:17;;;;;;;;;;;;;;;24.43;48.20;98682.72;5001179;28;19929;-85
2022/08/10 04:10:43;;;;;;;;;;;;;;;24.21;48.49;98678.41;5000240;28;19929;-85
2022/08/10 04:13:09;;;;;;;;;;;;;;;24.23;48.33;98681.63;5001593;28;20020;-85
2022/08/10 04:15:36;;;;;;;;;;;;;;;24.28;48.21;98669.69;5004340;28;19929;-85
2022/08/10 04:18:03;;;;;;;;;;;;;;;24.21;48.38;98672.13;5001309;28;20278;-85
2022/08/10 04:20:31;;;;;;;;;;;;;;;24.10;48.80;98683.44;4998761;28;19926;-85
2022/08/10 04:23:02;;;;;;;;;;;;;;;24.14;48.81;98683.59;4999221;28;19930;-84
2022/08/10 04:25:29;;;;;;;;;;;;;;;24.19;48.63;98686.13;5007858;28;19934;-86
2022/08/10 04:27:56;;;;;;;;;;;;;;;24.19;48.75;98691.59;4999317;28;20511;-86
2022/08/10 04:30:23;;;;;;;;;;;;;;;24.31;48.43;98694.38;4996924;28;19933;-85
2022/08/10 04:32:52;;;;;;;;;;;;;;;24.37;48.45;98684.84;4990348;28;19926;-86
2022/08/10 04:35:20;;;;;;;;;;;;;;;24.41;48.34;98687.72;4994576;28;20388;-86
2022/08/10 04:37:48;;;;;;;;;;;;;;;24.44;48.22;98696.06;4998235;28;19926;-86
2022/08/10 04:40:15;;;;;;;;;;;;;;;24.35;48.34;98692.59;4999396;28;20017;-85
2022/08/10 04:42:41;;;;;;;;;;;;;;;24.22;48.64;98690.94;5003302;28;19930;-84
2022/08/10 04:45:10;;;;;;;;;;;;;;;24.22;48.72;98692.84;4999107;28;19936;-87
2022/08/10 04:47:37;;;;;;;;;;;;;;;24.21;48.67;98708.44;5006788;28;19929;-86
2022/08/10 04:50:03;;;;;;;;;;;;;;;24.17;48.62;98702.81;5001797;28;19964;-85
2022/08/10 04:52:31;;;;;;;;;;;;;;;24.28;48.37;98697.78;4992300;28;20028;-85
2022/08/10 04:54:57;;;;;;;;;;;;;;;24.29;48.40;98696.66;4996418;28;19940;-85
2022/08/10 04:57:24;;;;;;;;;;;;;;;24.02;48.97;98700.66;4998565;28;20396;-85
2022/08/10 04:59:50;;;;;;;;;;;;;;;24.12;48.96;98702.25;5000953;28;20511;-86
2022/08/10 05:02:16;;;;;;;;;;;;;;;24.23;48.70;98706.19;4994588;28;20290;-87
2022/08/10 05:04:43;;;;;;;;;;;;;;;24.22;48.63;98709.22;5006992;28;19935;-85
2022/08/10 05:07:10;;;;;;;;;;;;;;;23.91;49.36;98712.31;5007102;28;20621;-85
2022/08/10 05:09:38;;;;;;;;;;;;;;;23.77;49.70;98715.25;5007114;28;20486;-85
2022/08/10 05:12:05;;;;;;;;;;;;;;;23.91;49.37;98709.56;5005894;28;21824;-86
2022/08/10 05:14:31;;;;;;;;;;;;;;;24.07;49.28;98708.69;5000429;28;19969;-84
2022/08/10 05:16:58;;;;;;;;;;;;;;;23.77;49.65;98703.56;5001499;28;19971;-84
2022/08/10 05:19:25;;;;;;;;;;;;;;;23.77;49.66;98709.03;4997768;28;20024;-85
2022/08/10 05:21:51;;;;;;;;;;;;;;;23.89;49.69;98709.13;4996527;28;20008;-85
2022/08/10 05:24:17;;;;;;;;;;;;;;;23.88;49.68;98715.69;4999844;28;20547;-86
2022/08/10 05:26:45;;;;;;;;;;;;;;;23.91;49.81;98710.38;4994349;28;19937;-86
2022/08/10 05:29:11;;;;;;;;;;;;;;;23.94;49.75;98708.91;4998781;28;19935;-84
2022/08/10 05:31:38;;;;;;;;;;;;;;;23.89;49.62;98703.66;4998928;28;19981;-85
2022/08/10 05:34:04;;;;;;;;;;;;;;;23.65;50.35;98713.25;5005150;28;19975;-85
2022/08/10 05:36:32;;;;;;;;;;;;;;;23.84;49.83;98701.09;5000315;28;19938;-84
2022/08/10 05:39:00;;;;;;;;;;;;;;;23.81;49.96;98705.31;4998497;28;19929;-87
2022/08/10 05:41:27;;;;;;;;;;;;;;;23.48;50.61;98707.91;5000594;28;20448;-85
2022/08/10 05:43:56;;;;;;;;;;;;;;;22.94;51.95;98719.56;4999772;28;20013;-87
2022/08/10 05:46:22;;;;;;;;;;;;;;;22.86;52.18;98713.03;5005134;28;19937;-85
2022/08/10 05:48:49;;;;;;;;;;;;;;;23.23;51.94;98699.78;5005314;28;20455;-85
2022/08/10 05:51:16;;;;;;;;;;;;;;;23.52;51.10;98703.38;5005350;28;19932;-86
2022/08/10 05:53:42;;;;;;;;;;;;;;;23.81;50.34;98693.59;5002177;28;20016;-84
2022/08/10 05:56:08;;;;;;;;;;;;;;;24.24;49.79;98688.66;5005432;28;19929;-86
2022/08/10 05:58:36;;;;;;;;;;;;;;;24.41;49.42;98690.44;4986097;28;20532;-84
2022/08/10 06:01:05;;;;;;;;;;;;;;;24.53;49.22;98698.69;4999963;28;19931;-85
2022/08/10 06:03:33;;;;;;;;;;;;;;;24.58;49.42;98693.81;5006197;28;19980;-86
2022/08/10 06:06:00;;;;;;;;;;;;;;;24.63;49.47;98703.75;5008275;28;20407;-84
2022/08/10 06:08:29;;;;;;;;;;;;;;;24.81;49.26;98696.19;5003331;28;19926;-85
2022/08/10 06:10:56;;;;;;;;;;;;;;;24.96;49.24;98698.28;5006020;28;20359;-85
2022/08/10 06:16:09;;;;;;;;;;;;;;;25.18;49.07;98692.44;5004543;28;19926;-86
2022/08/10 06:18:36;;;;;;;;;;;;;;;25.33;48.79;98694.50;4993218;28;20020;-85
2022/08/10 06:21:02;;;;;;;;;;;;;;;25.40;48.63;98697.47;4998652;28;19937;-85
2022/08/10 06:23:30;;;;;;;;;;;;;;;25.51;48.62;98695.09;4999438;28;19933;-86
2022/08/10 06:25:57;;;;;;;;;;;;;;;25.53;48.38;98696.34;5004605;28;20574;-85
2022/08/10 06:28:24;;;;;;;;;;;;;;;25.68;48.34;98703.88;5019854;28;19929;-85
2022/08/10 06:30:52;;;;;;;;;;;;;;;25.77;48.12;98707.31;5005095;28;19996;-85
2022/08/10 06:33:21;;;;;;;;;;;;;;;25.80;48.11;98705.81;4989617;28;19934;-85
2022/08/10 06:35:48;;;;;;;;;;;;;;;25.96;47.93;98711.38;4995594;28;19929;-87
2022/08/10 06:38:16;;;;;;;;;;;;;;;26.10;47.83;98696.19;4991978;28;19926;-85
2022/08/10 06:40:45;;;;;;;;;;;;;;;26.30;47.76;98705.41;5009205;28;19925;-85
2022/08/10 06:43:14;;;;;;;;;;;;;;;26.17;47.67;98701.09;5002286;28;19960;-85
2022/08/10 06:45:42;;;;;;;;;;;;;;;26.23;47.92;98699.72;4993018;28;19975;-85
2022/08/10 06:48:12;;;;;;;;;;;;;;;26.11;47.75;98702.47;5000913;28;19976;-84
2022/08/10 06:50:44;;;;;;;;;;;;;;;26.23;47.96;98696.97;4998320;28;19981;-86
2022/08/10 06:53:13;;;;;;;;;;;;;;;26.34;47.41;98700.81;4991272;28;19926;-86
2022/08/10 06:55:42;;;;;;;;;;;;;;;26.52;47.37;98704.84;5006842;28;20008;-85
2022/08/10 06:58:10;;;;;;;;;;;;;;;26.71;47.23;98705.00;4997572;28;20435;-85
2022/08/10 07:00:38;;;;;;;;;;;;;;;26.34;47.24;98698.06;5003648;28;20335;-85
2022/08/10 07:03:06;;;;;;;;;;;;;;;26.04;47.54;98696.75;5002820;28;20505;-85
2022/08/10 07:05:35;;;;;;;;;;;;;;;26.37;47.82;98700.13;5001994;28;19932;-85
2022/08/10 07:08:03;;;;;;;;;;;;;;;26.77;47.27;98695.38;5008151;28;19932;-85
2022/08/10 07:10:31;;;;;;;;;;;;;;;26.78;47.14;98702.47;5009237;28;20016;-85
2022/08/10 07:12:59;;;;;;;;;;;;;;;26.78;46.18;98698.94;5009090;28;19930;-87
2022/08/10 07:15:26;;;;;;;;;;;;;;;26.51;46.48;98684.09;5006497;28;20509;-86
2022/08/10 07:17:53;;;;;;;;;;;;;;;26.46;47.38;98694.53;5003313;28;19977;-86
2022/08/10 07:20:21;;;;;;;;;;;;;;;26.95;46.81;98693.19;5004146;28;19933;-85
2022/08/10 07:22:49;;;;;;;;;;;;;;;26.70;46.80;98694.41;5000405;28;19930;-85
2022/08/10 07:25:19;;;;;;;;;;;;;;;26.83;46.28;98689.69;5009733;28;20385;-84
2022/08/10 07:27:46;;;;;;;;;;;;;;;26.94;46.40;98686.09;4999032;28;20541;-85
2022/08/10 07:30:13;;;;;;;;;;;;;;;26.49;46.33;98680.91;4995720;28;20360;-84
2022/08/10 07:32:42;;;;;;;;;;;;;;;26.33;46.81;98684.75;4993062;28;19929;-84
2022/08/10 07:35:11;;;;;;;;;;;;;;;25.97;46.08;98686.38;4998333;28;19929;-85
2022/08/10 07:37:39;;;;;;;;;;;;;;;25.39;47.51;98695.06;4999149;28;19929;-84
2022/08/10 07:40:07;;;;;;;;;;;;;;;25.29;48.11;98695.50;4993136;28;19937;-85
2022/08/10 07:42:36;;;;;;;;;;;;;;;25.05;48.46;98690.81;5000266;28;19932;-84
2022/08/10 07:45:04;;;;;;;;;;;;;;;24.58;49.25;98698.47;5004655;28;19997;-86
2022/08/10 07:47:33;;;;;;;;;;;;;;;24.50;49.71;98691.97;4996577;28;20428;-85
2022/08/10 07:50:02;;;;;;;;;;;;;;;24.57;49.77;98694.16;4995133;28;20356;-85
2022/08/10 07:52:31;;;;;;;;;;;;;;;24.74;49.92;98691.25;5000839;28;19968;-84
2022/08/10 07:54:58;;;;;;;;;;;;;;;24.89;49.85;98700.78;4997829;28;19984;-85
2022/08/10 07:57:26;;;;;;;;;;;;;;;25.05;49.13;98688.06;4988700;28;19930;-85
2022/08/10 07:59:55;;;;;;;;;;;;;;;25.11;49.42;98682.03;5019656;28;19932;-84
2022/08/10 08:02:24;;;;;;;;;;;;;;;24.82;49.87;98687.66;5002037;28;19939;-85
2022/08/10 08:04:52;;;;;;;;;;;;;;;24.69;49.92;98681.34;5002549;28;20020;-85
2022/08/10 08:07:19;;;;;;;;;;;;;;;24.86;49.74;98674.13;5007096;28;19936;-82
2022/08/10 08:09:46;;;;;;;;;;;;;;;24.91;49.41;98682.13;5007315;28;19981;-84
2022/08/10 08:12:14;;;;;;;;;;;;;;;24.82;49.09;98681.44;5004849;28;19979;-83
2022/08/10 08:14:42;;;;;;;;;;;;;;;24.56;49.39;98695.28;4987143;28;19929;-84
2022/08/10 08:17:10;;;;;;;;;;;;;;;24.40;50.37;98686.91;4995024;28;19926;-86
2022/08/10 08:19:37;;;;;;;;;;;;;;;24.56;49.73;98679.72;4995852;28;19940;-83
2022/08/10 08:22:04;;;;;;;;;;;;;;;24.83;50.02;98688.47;4998427;28;20420;-85
2022/08/10 08:24:31;;;;;;;;;;;;;;;27.16;50.91;98681.97;5005506;28;19934;-84
2022/08/10 08:26:59;;;;;;;;;;;;;;;28.05;48.00;98682.97;5003065;28;19933;-85
2022/08/10 08:29:26;;;;;;;;;;;;;;;28.76;45.26;98677.00;5001944;28;19969;-84
2022/08/10 08:31:54;;;;;;;;;;;;;;;29.30;45.71;98671.31;4998184;28;19935;-85
2022/08/10 08:34:22;;;;;;;;;;;;;;;29.53;44.89;98668.53;4994958;28;19946;-84
2022/08/10 08:36:49;;;;;;;;;;;;;;;29.80;44.47;98672.88;5001214;28;19925;-84
2022/08/10 08:39:16;;;;;;;;;;;;;;;29.69;43.87;98674.69;4996344;28;20017;-84
2022/08/10 08:41:49;;;;;;;;;;;;;;;29.42;44.35;98665.63;5001875;28;20471;-85
2022/08/10 08:44:27;;;;;;;;;;;;;;;29.84;43.74;98662.72;4999712;28;19925;-83
2022/08/10 08:47:03;;;;;;;;;;;;;;;30.22;42.73;98663.63;5005566;28;20384;-84
2022/08/10 08:49:45;;;;;;;;;;;;;;;30.48;42.49;98663.63;4999505;28;20355;-85
2022/08/10 08:52:18;;;;;;;;;;;;;;;29.13;41.67;98666.25;4998647;28;19976;-87
2022/08/10 08:54:52;;;;;;;;;;;;;;;30.43;42.77;98656.47;5003119;28;19936;-85
2022/08/10 08:57:22;;;;;;;;;;;;;;;30.68;42.10;98667.75;4998926;28;19926;-84
2022/08/10 08:59:54;;;;;;;;;;;;;;;30.78;41.95;98653.31;4998529;28;19925;-82
2022/08/10 09:02:30;;;;;;;;;;;;;;;30.95;41.57;98658.22;5001618;28;19964;-84
2022/08/10 09:05:06;;;;;;;;;;;;;;;31.11;41.05;98657.19;4997433;28;19940;-85
2022/08/10 09:07:48;;;;;;;;;;;;;;;31.11;41.46;98665.47;5006378;28;19969;-85
2022/08/10 09:10:19;;;;;;;;;;;;;;;31.23;41.17;98659.66;5003259;28;20016;-84
2022/08/10 09:12:49;;;;;;;;;;;;;;;31.01;41.39;98655.94;5001951;28;20387;-83
2022/08/10 09:15:21;;;;;;;;;;;;;;;30.98;41.00;98651.94;5002203;28;19969;-83
2022/08/10 09:17:53;;;;;;;;;;;;;;;31.16;40.71;98648.56;4996687;28;19932;-83
2022/08/10 09:20:24;;;;;;;;;;;;;;;31.33;40.60;98653.44;5002223;28;19980;-84
2022/08/10 09:22:55;;;;;;;;;;;;;;;30.16;40.35;98641.13;4999326;28;20016;-83
2022/08/10 09:25:24;;;;;;;;;;;;;;;29.87;39.58;98644.66;5000682;28;20020;-83
2022/08/10 09:27:56;;;;;;;;;;;;;;;28.58;40.30;98650.28;5003711;28;19952;-84
2022/08/10 09:30:28;;;;;;;;;;;;;;;28.29;41.21;98640.69;4999554;28;20529;-84
2022/08/10 09:32:57;;;;;;;;;;;;;;;27.83;40.61;98662.44;4993656;28;19933;-84
2022/08/10 09:35:27;;;;;;;;;;;;;;;27.95;41.61;98649.72;4997146;28;19956;-84
2022/08/10 09:38:00;;;;;;;;;;;;;;;28.63;41.39;98645.28;5003033;28;19933;-84
2022/08/10 09:40:29;;;;;;;;;;;;;;;28.22;40.66;98635.88;4992570;28;19930;-84
2022/08/10 09:43:02;;;;;;;;;;;;;;;28.08;41.28;98638.31;4996450;28;19930;-83
2022/08/10 09:45:47;;;;;;;;;;;;;;;27.72;41.24;98639.47;4999887;28;19977;-84
2022/08/10 09:48:22;;;;;;;;;;;;;;;27.74;41.47;98645.38;4993840;28;19925;-86
2022/08/10 09:50:56;;;;;;;;;;;;;;;28.08;40.80;98634.75;4996114;28;20308;-85
2022/08/10 09:53:28;;;;;;;;;;;;;;;27.69;40.94;98642.13;5002117;28;19932;-84
2022/08/10 09:56:00;;;;;;;;;;;;;;;27.76;41.71;98636.81;4998397;28;19964;-84
2022/08/10 09:58:34;;;;;;;;;;;;;;;27.79;41.40;98631.38;4994592;28;19926;-83
2022/08/10 10:01:02;;;;;;;;;;;;;;;28.03;41.98;98630.34;5002287;28;20023;-85
2022/08/10 10:03:31;;;;;;;;;;;;;;;28.46;41.26;98623.78;5002429;28;20027;-83
2022/08/10 10:06:03;;;;;;;;;;;;;;;28.17;40.75;98627.91;4999267;28;19936;-84
2022/08/10 10:08:32;;;;;;;;;;;;;;;28.49;40.84;98623.03;5001243;28;19925;-85
2022/08/10 10:11:03;;;;;;;;;;;;;;;28.69;40.23;98618.34;5006104;28;19925;-83
2022/08/10 10:13:34;;;;;;;;;;;;;;;28.47;40.82;98619.88;5005307;28;19968;-83
2022/08/10 10:16:07;;;;;;;;;;;;;;;28.64;40.52;98613.91;5004690;28;20738;-84
2022/08/10 10:18:42;;;;;;;;;;;;;;;28.91;39.84;98621.09;4992358;28;19926;-84
2022/08/10 10:21:14;;;;;;;;;;;;;;;28.23;40.59;98614.66;4994596;28;20351;-84
2022/08/10 10:23:47;;;;;;;;;;;;;;;28.14;40.88;98603.91;4998384;28;19930;-83
2022/08/10 10:26:17;;;;;;;;;;;;;;;28.15;40.57;98605.50;5001235;28;20335;-85
2022/08/10 10:28:46;;;;;;;;;;;;;;;28.13;40.33;98599.56;5005688;28;19930;-84
2022/08/10 10:31:19;;;;;;;;;;;;;;;27.62;40.64;98604.34;5008848;28;20598;-85
2022/08/10 10:33:51;;;;;;;;;;;;;;;28.26;40.57;98602.94;5000713;28;19925;-84
2022/08/10 10:36:19;;;;;;;;;;;;;;;27.97;40.31;98598.81;5001692;28;19926;-84
2022/08/10 10:38:46;;;;;;;;;;;;;;;28.53;39.96;98593.69;5004223;28;19969;-84
2022/08/10 10:41:16;;;;;;;;;;;;;;;28.63;39.21;98606.81;4988541;28;20577;-84
2022/08/10 10:43:50;;;;;;;;;;;;;;;28.16;40.06;98592.56;4997080;28;19952;-84
2022/08/10 10:46:23;;;;;;;;;;;;;;;27.83;39.48;98596.56;5001639;28;20648;-83
2022/08/10 10:48:55;;;;;;;;;;;;;;;27.58;40.26;98594.41;4999678;28;19936;-83
2022/08/10 10:51:28;;;;;;;;;;;;;;;27.54;40.26;98580.66;5004705;28;19975;-83
2022/08/10 10:54:01;;;;;;;;;;;;;;;27.90;39.99;98579.44;4996171;28;20389;-85
2022/08/10 10:56:30;;;;;;;;;;;;;;;27.86;39.55;98584.84;5007368;28;19969;-85
2022/08/10 10:59:02;;;;;;;;;;;;;;;27.69;39.91;98588.03;4989458;28;20009;-85
2022/08/10 11:01:34;;;;;;;;;;;;;;;27.55;39.83;98584.16;4997786;28;19925;-85
2022/08/10 11:04:05;;;;;;;;;;;;;;;27.60;39.66;98581.94;5003851;28;19987;-85
2022/08/10 11:06:38;;;;;;;;;;;;;;;27.52;39.63;98573.91;5005025;28;19933;-85
2022/08/10 11:09:07;;;;;;;;;;;;;;;27.48;39.48;98582.03;5005524;28;20446;-85
2022/08/10 11:11:35;;;;;;;;;;;;;;;27.42;39.59;98593.66;5000559;28;19930;-84
2022/08/10 11:14:11;;;;;;;;;;;;;;;27.18;39.88;98592.69;5004952;28;20446;-86
2022/08/10 11:16:42;;;;;;;;;;;;;;;27.15;39.84;98581.63;5002040;28;19976;-84
2022/08/10 11:19:13;;;;;;;;;;;;;;;27.27;40.18;98585.06;4988608;28;20333;-84
2022/08/10 11:21:49;;;;;;;;;;;;;;;27.41;40.20;98592.84;4980242;28;19930;-83
2022/08/10 11:24:19;;;;;;;;;;;;;;;27.69;39.79;98589.97;4991860;28;19925;-83
2022/08/10 11:26:47;;;;;;;;;;;;;;;27.70;39.45;98591.53;5000234;28;19932;-84
2022/08/10 11:29:18;;;;;;;;;;;;;;;27.51;39.46;98578.63;4997820;28;19936;-83
2022/08/10 11:31:47;;;;;;;;;;;;;;;27.36;39.36;98582.94;5003040;28;19965;-84
2022/08/10 11:34:15;;;;;;;;;;;;;;;27.51;39.14;98584.09;5001243;28;19932;-85
2022/08/10 11:36:45;;;;;;;;;;;;;;;27.45;39.13;98576.50;4999126;28;19932;-84
2022/08/10 11:39:17;;;;;;;;;;;;;;;27.58;38.78;98578.75;4990763;28;19926;-83
2022/08/10 11:41:49;;;;;;;;;;;;;;;27.55;39.23;98579.47;5000172;28;20408;-83
2022/08/10 11:44:19;;;;;;;;;;;;;;;27.44;38.92;98583.94;4995172;28;19936;-85
2022/08/10 11:46:49;;;;;;;;;;;;;;;27.70;39.00;98586.84;5007022;28;19929;-84
2022/08/10 11:49:21;;;;;;;;;;;;;;;27.61;38.81;98580.78;4996406;28;19925;-84
2022/08/10 11:51:50;;;;;;;;;;;;;;;27.41;39.40;98573.66;5007333;28;20020;-85
2022/08/10 11:54:24;;;;;;;;;;;;;;;27.32;39.00;98573.03;5001605;28;20401;-85
2022/08/10 11:56:52;;;;;;;;;;;;;;;27.34;39.33;98573.47;5006509;28;20369;-84
2022/08/10 12:02:06;;;;;;;;;;;;;;;27.50;39.10;98565.25;5003366;28;20413;-87
2022/08/10 12:04:34;;;;;;;;;;;;;;;27.39;38.93;98562.22;5008106;28;19936;-87
2022/08/10 12:07:03;;;;;;;;;;;;;;;27.52;38.79;98573.91;5007363;28;19929;-85
2022/08/10 12:09:32;;;;;;;;;;;;;;;27.39;38.62;98562.22;5005429;28;19936;-84
2022/08/10 12:11:59;;;;;;;;;;;;;;;27.39;38.27;98564.97;5008715;28;19932;-84
2022/08/10 12:14:28;;;;;;;;;;;;;;;27.43;38.42;98568.63;5004714;28;19930;-84
2022/08/10 12:16:59;;;;;;;;;;;;;;;27.59;38.19;98566.63;5006711;28;20395;-85
2022/08/10 12:19:28;;;;;;;;;;;;;;;27.66;37.82;98560.50;4996710;28;19936;-84
2022/08/10 12:21:57;;;;;;;;;;;;;;;27.71;38.01;98555.53;5006265;28;19974;-85
2022/08/10 12:24:25;;;;;;;;;;;;;;;27.59;37.67;98566.63;5005706;28;20528;-85
2022/08/10 12:26:56;;;;;;;;;;;;;;;27.74;38.16;98554.81;4996509;28;19952;-85
2022/08/10 12:29:26;;;;;;;;;;;;;;;27.78;37.64;98555.69;5010980;28;19937;-85
2022/08/10 12:31:55;;;;;;;;;;;;;;;27.80;37.09;98547.88;4999067;28;19969;-84
2022/08/10 12:34:25;;;;;;;;;;;;;;;27.58;37.79;98543.09;5000953;28;20445;-85
2022/08/10 12:36:54;;;;;;;;;;;;;;;27.57;37.86;98541.50;4994618;28;20024;-84
2022/08/10 12:39:24;;;;;;;;;;;;;;;27.64;37.36;98549.06;4995659;28;20309;-85
2022/08/10 12:41:56;;;;;;;;;;;;;;;27.56;37.84;98547.34;4988974;28;19980;-84
2022/08/10 12:44:27;;;;;;;;;;;;;;;27.85;37.22;98536.59;5000027;28;19933;-84
2022/08/10 12:46:57;;;;;;;;;;;;;;;27.73;37.45;98536.72;4997738;28;20405;-84
2022/08/10 12:49:28;;;;;;;;;;;;;;;27.92;37.23;98543.38;5012554;28;19972;-84
2022/08/10 12:51:59;;;;;;;;;;;;;;;27.74;37.59;98546.56;5005981;28;20028;-85
2022/08/10 12:54:26;;;;;;;;;;;;;;;27.76;37.23;98541.50;5001631;28;19932;-84
2022/08/10 12:57:05;;;;;;;;;;;;;;;28.05;37.34;98534.69;4997724;28;20008;-83
2022/08/10 12:59:35;;;;;;;;;;;;;;;28.10;37.23;98523.38;4993307;28;20499;-86
2022/08/10 13:02:02;;;;;;;;;;;;;;;28.15;37.38;98530.56;4997144;28;19932;-84
2022/08/10 13:04:30;;;;;;;;;;;;;;;28.39;36.71;98524.72;5003369;28;19932;-85
2022/08/10 13:06:58;;;;;;;;;;;;;;;28.53;36.02;98513.19;5005277;28;20032;-84